Weather at West End Airport

Public forecast

Using degrees Celsius for public forecast. Weather courtesy of forecast.io.

Closest aviation weather report (METAR) to West End Airport

Closest report is Grand Bahama International Airport, 16.8 nm (31.1 km) ESE.

2024/05/21 01:00 (retrieved 32 minutes ago)

MYGF 210100Z AUTO 02011KT //// R06/P2000N // FEW022/// SCT030/// BKN220/// 27/23 A2986

Closest aviation forecast (TAF) to West End Airport

Forecast is more than 12 hours old.

Closest forecast is Homestead ARB Airport, 104.6 nm (193.6 km) SW.

2024/05/19 19:00 (retrieved 1 day ago)

TAF KHST 191900Z 1919/2101 21012KT 9999 SCT035 SCT180 QNH2986INS TEMPO 1920/1923 9000 -SHRA VCTS BKN025CB BECMG 1923/1924 25009KT 9999 NSW SCT025 SCT050 BKN120 QNH2985INS TEMPO 2010/2015 8000 -SHRA VCTS BKN020CB BKN080 BECMG 2014/2015 26010G15KT 9999 VCSH SCT025 BKN050 QNH2984INS BECMG 2022/2023 29009KT 9999 VCSH SCT025 BKN050 QNH2984INS TX35/1919Z TN25/2011Z